createdAt,value
2023-02-04T00:01:08.911Z,50.92
2023-02-04T00:03:36.861Z,56.08
2023-02-04T00:06:05.235Z,58.00
2023-02-04T00:08:32.353Z,57.53
2023-02-04T00:10:59.253Z,60.35
2023-02-04T00:13:26.271Z,61.42
2023-02-04T00:15:53.284Z,53.92
2023-02-04T00:18:22.050Z,54.45
2023-02-04T00:20:49.039Z,53.88
2023-02-04T00:23:15.974Z,58.03
2023-02-04T00:25:42.887Z,60.63
2023-02-04T00:28:09.885Z,63.53
2023-02-04T00:30:38.069Z,60.60
2023-02-04T00:33:05.103Z,55.17
2023-02-04T00:35:32.125Z,45.60
2023-02-04T00:37:59.194Z,39.40
2023-02-04T00:40:26.056Z,47.38
2023-02-04T00:42:53.316Z,31.88
2023-02-04T00:45:20.383Z,39.17
2023-02-04T00:47:47.837Z,33.88
2023-02-04T00:50:15.168Z,32.15
2023-02-04T00:52:44.885Z,33.17
2023-02-04T00:55:12.371Z,32.22
2023-02-04T00:57:40.809Z,33.25
2023-02-04T01:00:09.192Z,24.75
2023-02-04T01:02:36.208Z,23.08
2023-02-04T01:05:03.379Z,16.95
2023-02-04T01:07:30.424Z,12.10
2023-02-04T01:09:57.378Z,13.00
2023-02-04T01:12:27.438Z,15.95
2023-02-04T01:14:55.810Z,23.63
2023-02-04T01:17:22.704Z,15.00
2023-02-04T01:19:49.748Z,13.05
2023-02-04T01:22:17.746Z,16.30
2023-02-04T01:24:44.833Z,12.20
2023-02-04T01:27:30.409Z,12.35
2023-02-04T01:29:57.391Z,10.38
2023-02-04T01:32:24.398Z,14.07
2023-02-04T01:34:52.580Z,11.82
2023-02-04T01:37:22.788Z,9.43
2023-02-04T01:39:50.345Z,14.48
2023-02-04T01:42:17.516Z,14.27
2023-02-04T01:44:48.219Z,12.90
2023-02-04T01:47:15.395Z,12.40
2023-02-04T01:49:42.992Z,14.82
2023-02-04T01:52:12.752Z,11.32
2023-02-04T01:54:39.989Z,12.25
2023-02-04T01:57:13.779Z,13.25
2023-02-04T01:59:43.825Z,16.65
2023-02-04T02:02:43.442Z,8.80
2023-02-04T02:05:15.769Z,14.85
2023-02-04T02:10:13.521Z,9.60
2023-02-04T02:12:41.486Z,11.82
2023-02-04T02:15:10.216Z,12.45
2023-02-04T02:17:37.646Z,11.38
2023-02-04T02:20:08.038Z,10.85
2023-02-04T02:22:42.069Z,9.73
2023-02-04T02:25:13.112Z,11.93
2023-02-04T02:27:40.480Z,11.52
2023-02-04T02:30:09.745Z,11.40
2023-02-04T02:32:37.801Z,14.93
2023-02-04T02:35:05.824Z,11.98
2023-02-04T02:37:33.191Z,13.50
2023-02-04T02:40:00.249Z,17.23
2023-02-04T02:42:27.283Z,20.23
2023-02-04T02:44:55.984Z,15.02
2023-02-04T02:47:24.175Z,15.85
2023-02-04T02:49:54.631Z,14.65
2023-02-04T02:52:25.110Z,14.20
2023-02-04T02:54:53.819Z,15.15
2023-02-04T02:57:22.647Z,14.75
2023-02-04T02:59:50.013Z,16.92
2023-02-04T03:02:22.859Z,12.32
2023-02-04T03:04:56.544Z,14.77
2023-02-04T03:07:27.208Z,17.10
2023-02-04T03:09:54.607Z,21.80
2023-02-04T03:12:21.647Z,16.27
2023-02-04T03:14:49.081Z,18.63
2023-02-04T03:17:16.556Z,16.90
2023-02-04T03:19:43.837Z,16.52
2023-02-04T03:22:11.293Z,16.48
2023-02-04T03:24:38.376Z,17.15
2023-02-04T03:27:05.760Z,22.20
2023-02-04T03:29:35.303Z,13.50
2023-02-04T03:32:03.240Z,16.50
2023-02-04T03:34:31.981Z,16.45
2023-02-04T03:36:58.886Z,20.75
2023-02-04T03:39:25.845Z,18.48
2023-02-04T03:41:53.507Z,15.93
2023-02-04T03:44:21.984Z,17.17
2023-02-04T03:46:49.070Z,19.55
2023-02-04T03:49:16.089Z,16.08
2023-02-04T03:51:43.074Z,13.88
2023-02-04T03:54:10.012Z,11.90
2023-02-04T03:56:38.003Z,19.63
2023-02-04T03:59:05.180Z,21.83
2023-02-04T04:01:32.765Z,20.83
2023-02-04T04:04:00.377Z,20.33
2023-02-04T04:06:27.505Z,18.60
2023-02-04T04:08:55.550Z,17.83
2023-02-04T04:11:22.495Z,19.42
2023-02-04T04:13:49.677Z,21.42
2023-02-04T04:16:17.310Z,25.38
2023-02-04T04:18:44.351Z,20.20
2023-02-04T04:21:12.038Z,19.10
2023-02-04T04:23:39.136Z,21.33
2023-02-04T04:26:06.456Z,24.98
2023-02-04T04:28:33.542Z,23.17
2023-02-04T04:31:00.640Z,21.10
2023-02-04T04:33:27.693Z,24.58
2023-02-04T04:35:54.950Z,31.83
2023-02-04T04:38:22.211Z,30.30
2023-02-04T04:40:49.587Z,26.35
2023-02-04T04:43:19.919Z,36.13
2023-02-04T04:45:47.011Z,29.77
2023-02-04T04:48:14.094Z,28.75
2023-02-04T04:50:41.118Z,28.02
2023-02-04T04:53:11.325Z,29.48
2023-02-04T04:55:38.663Z,20.40
2023-02-04T04:58:07.569Z,23.85
2023-02-04T05:00:35.306Z,24.17
2023-02-04T05:03:02.323Z,21.70
2023-02-04T05:05:30.728Z,22.58
2023-02-04T05:07:58.564Z,24.73
2023-02-04T05:10:25.605Z,20.30
2023-02-04T05:12:54.109Z,22.50
2023-02-04T05:15:21.196Z,17.80
2023-02-04T05:17:48.366Z,19.25
2023-02-04T05:20:15.622Z,22.50
2023-02-04T05:22:42.868Z,17.27
2023-02-04T05:25:12.995Z,21.13
2023-02-04T05:27:42.375Z,24.42
2023-02-04T05:30:14.277Z,23.23
2023-02-04T05:32:41.577Z,22.75
2023-02-04T05:35:08.859Z,23.27
2023-02-04T05:37:35.872Z,28.15
2023-02-04T05:40:02.951Z,29.92
2023-02-04T05:42:30.169Z,28.27
2023-02-04T05:44:58.687Z,29.90
2023-02-04T05:47:25.651Z,31.00
2023-02-04T05:49:53.866Z,25.80
2023-02-04T05:52:20.798Z,25.40
2023-02-04T05:54:48.252Z,30.23
2023-02-04T05:57:15.204Z,37.83
2023-02-04T05:59:42.154Z,30.50
2023-02-04T06:02:12.320Z,28.38
2023-02-04T06:04:39.357Z,30.75
2023-02-04T06:07:06.363Z,27.15
2023-02-04T06:09:33.669Z,36.55
2023-02-04T06:12:00.716Z,25.48
2023-02-04T06:14:28.793Z,28.40
2023-02-04T06:16:55.865Z,31.05
2023-02-04T06:19:22.855Z,36.30
2023-02-04T06:21:49.764Z,35.92
2023-02-04T06:24:16.841Z,38.80
2023-02-04T06:26:44.186Z,38.15
2023-02-04T06:29:11.277Z,47.97
2023-02-04T06:31:39.142Z,46.55
2023-02-04T06:34:06.486Z,42.95
2023-02-04T06:36:36.456Z,41.85
2023-02-04T06:39:04.018Z,38.58
2023-02-04T06:41:31.108Z,38.20
2023-02-04T06:43:58.140Z,39.47
2023-02-04T06:46:25.260Z,35.13
2023-02-04T06:48:52.253Z,36.28
2023-02-04T06:51:19.186Z,35.92
2023-02-04T06:53:46.157Z,35.35
2023-02-04T06:56:14.365Z,46.10
2023-02-04T06:58:41.691Z,42.85
2023-02-04T07:01:09.085Z,42.10
2023-02-04T07:03:36.071Z,40.53
2023-02-04T07:06:03.048Z,47.53
2023-02-04T07:08:30.006Z,41.78
2023-02-04T07:10:57.624Z,40.25
2023-02-04T07:13:24.738Z,35.60
2023-02-04T07:15:53.148Z,32.33
2023-02-04T07:18:20.508Z,40.47
2023-02-04T07:20:47.747Z,37.10
2023-02-04T07:23:15.557Z,32.88
2023-02-04T07:25:44.220Z,35.80
2023-02-04T07:28:11.282Z,33.20
2023-02-04T07:30:39.441Z,40.90
2023-02-04T07:33:06.573Z,35.97
2023-02-04T07:35:33.573Z,33.22
2023-02-04T07:38:01.266Z,28.92
2023-02-04T07:40:28.416Z,30.33
2023-02-04T07:42:55.495Z,32.53
2023-02-04T07:45:26.672Z,31.27
2023-02-04T07:47:54.730Z,30.73
2023-02-04T07:50:22.935Z,29.02
2023-02-04T07:52:50.327Z,24.90
2023-02-04T07:55:17.429Z,27.92
2023-02-04T07:57:44.464Z,30.10
2023-02-04T08:00:14.172Z,24.80
2023-02-04T08:02:42.347Z,28.75
2023-02-04T08:05:10.207Z,23.38
2023-02-04T08:07:37.426Z,26.27
2023-02-04T08:10:05.766Z,24.17
2023-02-04T08:12:32.704Z,23.00
2023-02-04T08:15:00.046Z,26.90
2023-02-04T08:17:28.951Z,21.83
2023-02-04T08:19:56.731Z,26.95
2023-02-04T08:22:23.673Z,23.17
2023-02-04T08:24:50.655Z,26.63
2023-02-04T08:27:17.754Z,29.05
2023-02-04T08:29:44.997Z,29.42
2023-02-04T08:32:13.953Z,24.58
2023-02-04T08:34:40.928Z,33.35
2023-02-04T08:37:07.959Z,24.00
2023-02-04T08:39:34.892Z,29.25
2023-02-04T08:42:01.861Z,23.33
2023-02-04T08:44:29.541Z,26.55
2023-02-04T08:46:56.618Z,26.80
2023-02-04T08:49:23.954Z,25.30
2023-02-04T08:51:51.277Z,24.95
2023-02-04T08:54:18.603Z,19.52
2023-02-04T08:56:45.637Z,27.17
2023-02-04T08:59:13.648Z,27.90
2023-02-04T09:01:40.638Z,24.25
2023-02-04T09:04:08.021Z,25.17
2023-02-04T09:06:36.154Z,22.40
2023-02-04T09:09:03.183Z,23.77
2023-02-04T09:11:30.185Z,38.25
2023-02-04T09:13:58.226Z,24.90
2023-02-04T09:16:25.472Z,25.40
2023-02-04T09:18:53.672Z,27.17
2023-02-04T09:21:20.800Z,26.13
2023-02-04T09:23:49.189Z,31.38
2023-02-04T09:26:16.210Z,23.50
2023-02-04T09:28:43.553Z,35.35
2023-02-04T09:31:11.600Z,31.63
2023-02-04T09:33:38.748Z,29.92
2023-02-04T09:36:09.893Z,24.23
2023-02-04T09:38:37.201Z,32.28
2023-02-04T09:41:08.421Z,30.40
2023-02-04T09:43:40.498Z,26.50
2023-02-04T09:46:23.212Z,29.17
2023-02-04T09:48:51.169Z,25.23
2023-02-04T09:51:23.785Z,25.13
2023-02-04T09:53:54.451Z,22.55
2023-02-04T09:56:22.830Z,34.00
2023-02-04T09:58:51.010Z,27.02
2023-02-04T10:01:20.051Z,25.60
2023-02-04T10:03:50.374Z,29.95
2023-02-04T10:06:22.574Z,22.98
2023-02-04T10:08:51.311Z,35.20
2023-02-04T10:11:21.240Z,34.83
2023-02-04T10:13:52.733Z,32.35
2023-02-04T10:16:30.240Z,25.05
2023-02-04T10:19:07.577Z,25.27
2023-02-04T10:21:40.550Z,40.97
2023-02-04T10:24:15.304Z,26.55
2023-02-04T10:26:43.846Z,27.70
2023-02-04T10:29:17.254Z,24.23
2023-02-04T10:31:50.079Z,26.52
2023-02-04T10:34:38.360Z,22.38
2023-02-04T10:37:23.853Z,25.08
2023-02-04T10:39:50.984Z,30.02
2023-02-04T10:42:24.023Z,30.30
2023-02-04T10:44:53.497Z,28.75
2023-02-04T10:47:26.307Z,23.95
2023-02-04T10:49:58.322Z,24.02
2023-02-04T10:52:35.440Z,24.65
2023-02-04T10:55:05.466Z,27.65
2023-02-04T10:57:36.264Z,27.42
2023-02-04T11:00:05.090Z,35.00
2023-02-04T11:02:46.258Z,25.40
2023-02-04T11:05:26.845Z,35.63
2023-02-04T11:07:57.304Z,28.15
2023-02-04T11:10:29.793Z,22.23
2023-02-04T11:12:56.953Z,29.05
2023-02-04T11:16:15.224Z,26.88
2023-02-04T11:18:54.755Z,33.47
2023-02-04T11:21:36.438Z,25.33
2023-02-04T11:24:16.382Z,27.60
2023-02-04T11:26:53.152Z,31.95
2023-02-04T11:29:36.071Z,24.25
2023-02-04T11:32:23.958Z,28.02
2023-02-04T11:34:53.082Z,24.02
2023-02-04T11:37:43.556Z,33.53
2023-02-04T11:40:29.056Z,27.48
2023-02-04T11:43:02.053Z,31.20
2023-02-04T11:45:35.102Z,25.05
2023-02-04T11:48:11.162Z,25.60
2023-02-04T11:50:42.098Z,22.75
2023-02-04T11:53:12.135Z,21.85
2023-02-04T11:55:47.594Z,29.00
2023-02-04T11:58:20.268Z,19.02
2023-02-04T12:00:48.056Z,29.75
2023-02-04T12:03:23.775Z,31.92
2023-02-04T12:05:51.799Z,31.75
2023-02-04T12:08:25.697Z,28.08
2023-02-04T12:11:04.514Z,29.08
2023-02-04T12:13:33.604Z,27.77
2023-02-04T12:16:08.074Z,24.17
2023-02-04T12:18:36.636Z,24.02
2023-02-04T12:21:04.612Z,24.27
2023-02-04T12:23:33.840Z,22.92
2023-02-04T12:26:02.624Z,29.00
2023-02-04T12:28:31.806Z,29.35
2023-02-04T12:30:59.750Z,27.85
2023-02-04T12:33:27.615Z,29.27
2023-02-04T12:35:55.597Z,29.40
2023-02-04T12:38:22.621Z,28.77
2023-02-04T12:40:51.075Z,30.90
2023-02-04T12:43:18.244Z,34.45
2023-02-04T12:45:46.908Z,30.08
2023-02-04T12:48:14.462Z,29.35
2023-02-04T12:50:42.057Z,25.77
2023-02-04T12:53:09.524Z,23.90
2023-02-04T12:55:37.160Z,27.33
2023-02-04T12:58:06.696Z,24.27
2023-02-04T13:00:35.189Z,24.48
2023-02-04T13:03:04.057Z,24.83
2023-02-04T13:05:32.060Z,19.80
2023-02-04T13:07:59.379Z,21.80
2023-02-04T13:10:27.560Z,28.33
2023-02-04T13:12:56.535Z,24.35
2023-02-04T13:15:23.690Z,20.67
2023-02-04T13:17:51.066Z,24.23
2023-02-04T13:20:18.896Z,23.48
2023-02-04T13:22:46.142Z,25.90
2023-02-04T13:25:13.956Z,26.30
2023-02-04T13:27:42.515Z,25.35
2023-02-04T13:30:14.144Z,25.25
2023-02-04T13:32:43.078Z,34.10
2023-02-04T13:35:10.742Z,31.67
2023-02-04T13:37:38.707Z,33.20
2023-02-04T13:40:08.070Z,30.92
2023-02-04T13:42:35.329Z,30.58
2023-02-04T13:45:02.546Z,31.90
2023-02-04T13:47:30.195Z,29.60
2023-02-04T13:49:57.244Z,35.90
2023-02-04T13:52:25.772Z,31.88
2023-02-04T13:54:56.910Z,29.42
2023-02-04T13:57:25.204Z,32.40
2023-02-04T13:59:53.696Z,33.67
2023-02-04T14:02:22.086Z,29.42
2023-02-04T14:04:49.532Z,33.05
2023-02-04T14:07:17.129Z,32.67
2023-02-04T14:09:45.192Z,26.67
2023-02-04T14:12:12.602Z,23.33
2023-02-04T14:14:39.905Z,24.58
2023-02-04T14:17:06.995Z,31.80
2023-02-04T14:19:34.168Z,24.35
2023-02-04T14:22:01.828Z,25.92
2023-02-04T14:24:29.141Z,28.95
2023-02-04T14:26:57.813Z,27.98
2023-02-04T14:29:24.984Z,24.92
2023-02-04T14:31:52.158Z,25.08
2023-02-04T14:34:19.654Z,21.02
2023-02-04T14:36:48.862Z,21.40
2023-02-04T14:39:16.436Z,16.95
2023-02-04T14:41:44.365Z,17.33
2023-02-04T14:44:11.433Z,15.18
2023-02-04T14:46:41.639Z,17.70
2023-02-04T14:49:09.231Z,14.80
2023-02-04T14:51:36.424Z,13.70
2023-02-04T14:54:03.464Z,12.18
2023-02-04T14:56:32.040Z,16.25
2023-02-04T14:58:59.416Z,15.38
2023-02-04T15:01:27.694Z,16.60
2023-02-04T15:03:54.908Z,17.67
2023-02-04T15:06:22.484Z,19.00
2023-02-04T15:08:49.545Z,17.95
2023-02-04T15:11:17.861Z,14.38
2023-02-04T15:13:45.960Z,11.80
2023-02-04T15:16:14.897Z,14.95
2023-02-04T15:18:42.656Z,14.07
2023-02-04T15:21:10.056Z,18.40
2023-02-04T15:23:37.547Z,18.08
2023-02-04T15:26:05.101Z,12.63
2023-02-04T15:28:33.744Z,15.85
2023-02-04T15:31:04.182Z,19.40
2023-02-04T15:33:32.038Z,19.38
2023-02-04T15:36:00.361Z,18.63
2023-02-04T15:38:27.973Z,16.08
2023-02-04T15:40:55.297Z,13.68
2023-02-04T15:43:22.334Z,14.90
2023-02-04T15:45:50.251Z,16.20
2023-02-04T15:48:19.810Z,18.65
2023-02-04T15:50:47.126Z,19.77
2023-02-04T15:53:14.827Z,18.23
2023-02-04T15:55:42.297Z,19.20
2023-02-04T15:58:09.552Z,18.90
2023-02-04T16:00:36.687Z,18.65
2023-02-04T16:03:05.776Z,18.48
2023-02-04T16:05:32.856Z,19.83
2023-02-04T16:07:59.938Z,16.85
2023-02-04T16:10:28.395Z,22.92
2023-02-04T16:13:00.524Z,19.05
2023-02-04T16:15:28.833Z,19.95
2023-02-04T16:17:58.009Z,17.90
2023-02-04T16:20:26.684Z,21.30
2023-02-04T16:22:53.716Z,23.50
2023-02-04T16:25:21.740Z,19.15
2023-02-04T16:27:51.563Z,18.20
2023-02-04T16:30:19.133Z,21.42
2023-02-04T16:32:46.143Z,18.50
2023-02-04T16:35:14.542Z,22.27
2023-02-04T16:37:41.721Z,22.42
2023-02-04T16:40:11.632Z,19.00
2023-02-04T16:42:39.054Z,21.38
2023-02-04T16:45:08.715Z,21.58
2023-02-04T16:47:36.112Z,23.70
2023-02-04T16:50:05.655Z,18.63
2023-02-04T16:52:33.062Z,18.48
2023-02-04T16:55:00.090Z,21.50
2023-02-04T16:57:27.843Z,21.92
2023-02-04T16:59:55.261Z,20.20
2023-02-04T17:02:23.266Z,19.73
2023-02-04T17:04:52.650Z,24.13
2023-02-04T17:07:21.665Z,21.20
2023-02-04T17:09:50.000Z,21.73
2023-02-04T17:12:18.320Z,21.77
2023-02-04T17:14:46.757Z,24.33
2023-02-04T17:17:14.054Z,21.38
2023-02-04T17:19:44.131Z,20.85
2023-02-04T17:22:11.589Z,21.20
2023-02-04T17:24:43.725Z,22.83
2023-02-04T17:27:13.140Z,23.52
2023-02-04T17:29:40.510Z,23.85
2023-02-04T17:32:08.918Z,24.67
2023-02-04T17:34:36.840Z,23.63
2023-02-04T17:37:03.949Z,20.60
2023-02-04T17:39:31.562Z,23.73
2023-02-04T17:41:58.964Z,24.88
2023-02-04T17:44:27.628Z,27.02
2023-02-04T17:46:54.940Z,29.48
2023-02-04T17:49:22.242Z,27.92
2023-02-04T17:51:50.344Z,27.73
2023-02-04T17:54:17.504Z,23.15
2023-02-04T17:56:44.921Z,26.77
2023-02-04T17:59:14.254Z,26.73
2023-02-04T18:01:42.697Z,23.55
2023-02-04T18:04:14.953Z,23.80
2023-02-04T18:06:42.076Z,22.08
2023-02-04T18:09:16.835Z,21.98
2023-02-04T18:11:44.909Z,21.35
2023-02-04T18:14:17.406Z,24.77
2023-02-04T18:16:47.043Z,23.15
2023-02-04T18:19:21.774Z,26.40
2023-02-04T18:21:50.265Z,24.92
2023-02-04T18:24:24.855Z,22.27
2023-02-04T18:26:54.838Z,25.77
2023-02-04T18:29:30.963Z,20.13
2023-02-04T18:32:25.931Z,21.88
2023-02-04T18:34:55.259Z,24.50
2023-02-04T18:37:26.369Z,23.90
2023-02-04T18:40:22.452Z,30.20
2023-02-04T18:43:15.435Z,27.73
2023-02-04T18:45:42.953Z,27.60
2023-02-04T18:48:16.590Z,25.75
2023-02-04T18:50:44.738Z,28.70
2023-02-04T18:53:15.498Z,24.27
2023-02-04T18:55:50.335Z,28.98
2023-02-04T18:58:50.549Z,30.20
2023-02-04T19:01:24.092Z,28.42
2023-02-04T19:03:56.418Z,28.17
2023-02-04T19:09:12.000Z,33.88
2023-02-04T19:11:44.337Z,27.95
2023-02-04T19:14:40.549Z,29.27
2023-02-04T19:17:10.914Z,41.42
2023-02-04T19:19:42.089Z,28.20
2023-02-04T19:22:20.530Z,30.05
2023-02-04T19:24:48.252Z,33.85
2023-02-04T19:27:20.778Z,33.95
2023-02-04T19:29:49.714Z,34.80
2023-02-04T19:32:27.806Z,31.70
2023-02-04T19:35:01.380Z,39.70
2023-02-04T19:37:40.244Z,33.10
2023-02-04T19:40:27.808Z,35.30
2023-02-04T19:43:16.220Z,41.60
2023-02-04T19:45:45.154Z,35.88
2023-02-04T19:48:34.859Z,40.47
2023-02-04T19:51:24.461Z,39.83
2023-02-04T19:54:02.777Z,42.17
2023-02-04T19:56:30.427Z,45.45
2023-02-04T19:58:58.024Z,43.03
2023-02-04T20:01:25.286Z,44.10
2023-02-04T20:03:52.471Z,38.67
2023-02-04T20:06:37.766Z,40.47
2023-02-04T20:09:15.907Z,45.63
2023-02-04T20:12:06.773Z,49.75
2023-02-04T20:15:04.277Z,41.97
2023-02-04T20:17:46.192Z,48.95
2023-02-04T20:20:45.324Z,46.95
2023-02-04T20:23:35.598Z,45.47
2023-02-04T20:26:02.757Z,55.28
2023-02-04T20:28:38.234Z,46.80
2023-02-04T20:31:25.295Z,54.78
2023-02-04T20:33:55.495Z,54.80
2023-02-04T20:36:28.494Z,49.58
2023-02-04T20:39:28.370Z,62.72
2023-02-04T20:42:16.535Z,57.50
2023-02-04T20:44:43.801Z,53.50
2023-02-04T20:47:25.441Z,63.63
2023-02-04T20:50:01.418Z,59.23
2023-02-04T20:52:49.521Z,59.75
2023-02-04T20:55:25.236Z,57.42
2023-02-04T20:58:13.283Z,63.55
2023-02-04T21:00:43.513Z,56.53
2023-02-04T21:03:14.093Z,60.67
2023-02-04T21:05:43.080Z,49.38
2023-02-04T21:08:20.649Z,68.00
2023-02-04T21:10:55.151Z,61.60
2023-02-04T21:13:23.107Z,51.85
2023-02-04T21:15:51.749Z,54.67
2023-02-04T21:18:19.187Z,53.47
2023-02-04T21:20:46.669Z,56.85
2023-02-04T21:23:13.912Z,50.28
2023-02-04T21:25:41.359Z,60.75
2023-02-04T21:28:08.979Z,59.25
2023-02-04T21:30:38.593Z,54.40
2023-02-04T21:33:05.697Z,53.08
2023-02-04T21:35:33.285Z,48.38
2023-02-04T21:38:03.278Z,48.90
2023-02-04T21:40:31.639Z,50.00
2023-02-04T21:42:58.661Z,54.75
2023-02-04T21:45:27.225Z,46.58
2023-02-04T21:47:54.266Z,52.40
2023-02-04T21:50:22.671Z,52.67
2023-02-04T21:52:50.664Z,54.08
2023-02-04T21:55:20.920Z,62.58
2023-02-04T21:57:53.845Z,65.22
2023-02-04T22:00:25.018Z,62.17
2023-02-04T22:02:56.703Z,57.60
2023-02-04T22:05:24.588Z,58.40
2023-02-04T22:07:52.542Z,60.67
2023-02-04T22:10:22.773Z,60.60
2023-02-04T22:12:50.290Z,66.13
2023-02-04T22:15:17.874Z,62.55
2023-02-04T22:17:45.626Z,65.93
2023-02-04T22:20:17.251Z,66.72
2023-02-04T22:22:45.634Z,63.58
2023-02-04T22:25:14.392Z,60.85
2023-02-04T22:27:41.803Z,59.75
2023-02-04T22:30:12.266Z,62.72
2023-02-04T22:32:41.583Z,64.32
2023-02-04T22:35:11.389Z,68.45
2023-02-04T22:37:42.954Z,67.05
2023-02-04T22:40:12.773Z,67.50
2023-02-04T22:42:40.051Z,65.40
2023-02-04T22:45:08.203Z,64.47
2023-02-04T22:47:37.824Z,62.22
2023-02-04T22:50:05.422Z,60.67
2023-02-04T22:52:35.125Z,61.28
2023-02-04T22:55:05.598Z,58.17
2023-02-04T22:57:33.491Z,62.80
2023-02-04T23:00:00.537Z,65.07
2023-02-04T23:02:27.692Z,61.95
2023-02-04T23:04:56.176Z,58.35
2023-02-04T23:07:23.500Z,53.88
2023-02-04T23:09:51.055Z,52.10
2023-02-04T23:12:19.182Z,54.33
2023-02-04T23:14:48.959Z,51.17
2023-02-04T23:17:17.297Z,55.15
2023-02-04T23:19:45.048Z,49.58
2023-02-04T23:22:13.641Z,44.20
2023-02-04T23:24:42.713Z,45.63
2023-02-04T23:27:11.499Z,47.22
2023-02-04T23:29:39.793Z,45.65
2023-02-04T23:32:08.262Z,48.28
2023-02-04T23:34:35.525Z,48.95
2023-02-04T23:37:03.088Z,49.13
2023-02-04T23:39:31.416Z,49.65
2023-02-04T23:41:58.554Z,52.72
2023-02-04T23:44:26.092Z,50.95
2023-02-04T23:46:54.968Z,53.58
2023-02-04T23:49:22.006Z,52.90
2023-02-04T23:51:48.956Z,47.20
2023-02-04T23:54:16.569Z,51.80
2023-02-04T23:56:43.806Z,49.70
2023-02-04T23:59:11.778Z,51.28
